createdAt,value
2019-02-19T00:04:17.327Z,5.24
2019-02-19T00:09:19.345Z,5.28
2019-02-19T00:14:20.973Z,5.28
2019-02-19T00:19:22.651Z,5.31
2019-02-19T00:24:24.209Z,5.34
2019-02-19T00:29:25.826Z,5.32
2019-02-19T00:34:27.505Z,5.35
2019-02-19T00:39:29.445Z,5.32
2019-02-19T00:44:31.003Z,5.30
2019-02-19T00:49:32.572Z,5.33
2019-02-19T00:54:34.132Z,5.35
2019-02-19T00:59:35.695Z,5.34
2019-02-19T01:04:37.387Z,5.32
2019-02-19T01:09:39.134Z,5.31
2019-02-19T01:14:40.873Z,5.28
2019-02-19T01:19:42.573Z,5.16
2019-02-19T01:24:44.129Z,5.17
2019-02-19T01:29:45.684Z,5.15
2019-02-19T01:34:47.277Z,5.14
2019-02-19T01:39:48.929Z,5.15
2019-02-19T01:44:50.490Z,5.09
2019-02-19T01:49:52.045Z,5.12
2019-02-19T01:54:53.646Z,5.05
2019-02-19T01:59:55.201Z,5.00
2019-02-19T02:04:56.760Z,5.04
2019-02-19T02:09:58.359Z,4.97
2019-02-19T02:15:00.022Z,4.93
2019-02-19T02:20:01.921Z,4.84
2019-02-19T02:25:04.131Z,4.72
2019-02-19T02:30:07.081Z,4.67
2019-02-19T02:35:11.251Z,4.61
2019-02-19T02:40:12.706Z,4.53
2019-02-19T02:45:14.234Z,4.28
2019-02-19T02:50:15.794Z,4.02
2019-02-19T02:55:17.369Z,3.92
2019-02-19T03:00:19.074Z,3.81
2019-02-19T03:05:20.631Z,3.72
2019-02-19T03:10:22.230Z,3.58
2019-02-19T03:15:23.841Z,3.43
2019-02-19T03:20:25.404Z,3.35
2019-02-19T03:25:26.969Z,3.33
2019-02-19T03:30:28.568Z,3.33
2019-02-19T03:35:30.160Z,3.32
2019-02-19T03:40:32.009Z,3.38
2019-02-19T03:45:33.619Z,3.34
2019-02-19T03:50:35.221Z,3.38
2019-02-19T03:55:36.785Z,3.42
2019-02-19T04:00:38.605Z,3.39
2019-02-19T04:05:40.373Z,3.38
2019-02-19T04:10:42.067Z,3.33
2019-02-19T04:15:43.687Z,3.33
2019-02-19T04:20:45.282Z,3.31
2019-02-19T04:25:46.944Z,3.40
2019-02-19T04:30:48.523Z,3.40
2019-02-19T04:35:50.079Z,3.38
2019-02-19T04:40:51.629Z,3.36
2019-02-19T04:45:53.253Z,3.36
2019-02-19T04:50:54.806Z,3.35
2019-02-19T04:55:56.360Z,3.41
2019-02-19T05:00:57.912Z,3.42
2019-02-19T05:05:59.476Z,3.41
2019-02-19T05:11:01.173Z,3.36
2019-02-19T05:16:03.965Z,3.36
2019-02-19T05:21:05.575Z,3.30
2019-02-19T05:26:07.254Z,3.23
2019-02-19T05:31:08.845Z,3.11
2019-02-19T05:36:10.410Z,3.07
2019-02-19T05:41:11.986Z,2.98
2019-02-19T05:46:13.612Z,2.99
2019-02-19T05:51:15.169Z,2.95
2019-02-19T05:56:16.729Z,3.05
2019-02-19T06:01:18.297Z,3.08
2019-02-19T06:06:19.906Z,3.09
2019-02-19T06:11:21.507Z,3.14
2019-02-19T06:16:23.134Z,3.19
2019-02-19T06:21:24.789Z,3.40
2019-02-19T06:26:26.348Z,3.70
2019-02-19T06:31:27.933Z,4.35
2019-02-19T06:36:29.602Z,4.99
2019-02-19T06:41:31.237Z,5.65
2019-02-19T06:46:32.942Z,6.10
2019-02-19T06:51:34.534Z,6.64
2019-02-19T06:56:36.120Z,7.15
2019-02-19T07:01:40.790Z,7.60
2019-02-19T07:06:42.387Z,8.03
2019-02-19T07:11:43.981Z,8.29
2019-02-19T07:16:45.548Z,8.80
2019-02-19T07:21:47.155Z,9.03
2019-02-19T07:26:48.752Z,8.82
2019-02-19T07:31:50.309Z,9.15
2019-02-19T07:36:51.869Z,9.71
2019-02-19T07:41:53.806Z,10.24
2019-02-19T07:46:55.383Z,10.64
2019-02-19T07:51:57.009Z,10.93
2019-02-19T07:56:58.575Z,11.27
2019-02-19T08:02:00.147Z,11.54
2019-02-19T08:07:01.721Z,12.02
2019-02-19T08:12:03.304Z,12.44
2019-02-19T08:17:04.911Z,12.62
2019-02-19T08:22:06.785Z,12.78
2019-02-19T08:27:08.375Z,12.94
2019-02-19T08:32:10.050Z,13.16
2019-02-19T08:37:14.113Z,13.72
2019-02-19T08:42:15.764Z,13.92
2019-02-19T08:47:17.336Z,14.51
2019-02-19T08:52:19.061Z,14.91
2019-02-19T08:57:20.957Z,15.11
2019-02-19T09:02:22.526Z,15.16
2019-02-19T09:07:24.172Z,15.20
2019-02-19T09:12:25.737Z,15.26
2019-02-19T09:17:27.331Z,15.60
2019-02-19T09:22:28.963Z,15.98
2019-02-19T09:27:30.506Z,16.29
2019-02-19T09:32:32.082Z,16.37
2019-02-19T09:37:33.691Z,16.28
2019-02-19T09:42:35.323Z,16.51
2019-02-19T09:47:36.906Z,16.79
2019-02-19T09:52:38.461Z,17.05
2019-02-19T09:57:40.067Z,16.96
2019-02-19T10:02:43.724Z,17.03
2019-02-19T10:07:45.216Z,16.81
2019-02-19T10:12:46.851Z,16.65
2019-02-19T10:17:48.449Z,16.62
2019-02-19T10:22:50.025Z,16.88
2019-02-19T10:27:52.097Z,17.06
2019-02-19T10:32:53.658Z,17.22
2019-02-19T10:37:55.431Z,16.94
2019-02-19T10:42:57.113Z,16.96
2019-02-19T10:47:58.681Z,17.13
2019-02-19T10:53:00.253Z,17.27
2019-02-19T10:58:01.925Z,17.12
2019-02-19T11:03:03.494Z,17.07
2019-02-19T11:08:05.068Z,17.17
2019-02-19T11:13:06.706Z,17.60
2019-02-19T11:18:08.416Z,17.96
2019-02-19T11:23:09.977Z,18.30
2019-02-19T11:28:12.153Z,18.57
2019-02-19T11:33:13.713Z,18.72
2019-02-19T11:38:15.281Z,18.74
2019-02-19T11:43:16.953Z,18.92
2019-02-19T11:48:19.214Z,19.06
2019-02-19T11:53:22.290Z,19.02
2019-02-19T11:58:24.049Z,18.94
2019-02-19T12:03:25.660Z,18.94
2019-02-19T12:08:27.234Z,18.98
2019-02-19T12:13:28.946Z,19.13
2019-02-19T12:18:30.505Z,19.13
2019-02-19T12:23:32.082Z,19.09
2019-02-19T12:28:33.666Z,19.24
2019-02-19T12:33:35.293Z,19.11
2019-02-19T12:38:36.855Z,18.85
2019-02-19T12:43:38.498Z,18.86
2019-02-19T12:48:40.067Z,18.69
2019-02-19T12:53:41.635Z,18.56
2019-02-19T12:58:43.202Z,18.52
2019-02-19T13:03:44.842Z,18.39
2019-02-19T13:08:46.422Z,18.46
2019-02-19T13:13:48.129Z,18.32
2019-02-19T13:18:49.694Z,18.31
2019-02-19T13:23:51.400Z,18.28
2019-02-19T13:28:52.964Z,18.30
2019-02-19T13:33:54.567Z,18.35
2019-02-19T13:38:56.117Z,18.24
2019-02-19T13:43:57.785Z,18.20
2019-02-19T13:48:59.397Z,18.35
2019-02-19T13:54:02.893Z,18.23
2019-02-19T13:59:04.456Z,17.99
2019-02-19T14:04:06.013Z,17.73
2019-02-19T14:09:07.601Z,17.72
2019-02-19T14:14:12.994Z,17.54
2019-02-19T14:19:21.192Z,17.08
2019-02-19T14:24:20.276Z,17.03
2019-02-19T14:29:40.262Z,16.84
2019-02-19T14:35:00.335Z,16.65
2019-02-19T14:40:10.062Z,16.41
2019-02-19T14:45:11.931Z,16.23
2019-02-19T14:50:13.962Z,16.10
2019-02-19T14:55:35.754Z,15.93
2019-02-19T15:00:45.120Z,15.59
2019-02-19T15:05:49.090Z,15.43
2019-02-19T15:10:57.174Z,15.24
2019-02-19T15:16:00.714Z,14.97
2019-02-19T15:21:19.657Z,14.68
2019-02-19T15:26:23.126Z,14.23
2019-02-19T15:31:43.430Z,13.62
2019-02-19T15:36:58.474Z,13.17
2019-02-19T15:42:01.947Z,12.75
2019-02-19T15:47:06.049Z,12.28
2019-02-19T15:52:28.192Z,11.92
2019-02-19T15:57:40.885Z,11.74
2019-02-19T16:02:47.098Z,11.35
2019-02-19T16:07:53.102Z,11.02
2019-02-19T16:13:00.430Z,10.79
2019-02-19T16:18:11.173Z,10.53
2019-02-19T16:23:32.406Z,10.28
2019-02-19T16:28:44.703Z,10.14
2019-02-19T16:33:57.130Z,9.93
2019-02-19T16:39:00.598Z,9.86
2019-02-19T16:44:04.084Z,9.60
2019-02-19T16:49:07.628Z,9.39
2019-02-19T16:54:12.195Z,9.25
2019-02-19T16:59:13.906Z,9.20
2019-02-19T17:04:17.417Z,9.17
2019-02-19T17:09:33.387Z,8.98
2019-02-19T17:14:48.689Z,8.84
2019-02-19T17:20:21.047Z,8.71
2019-02-19T17:25:17.426Z,8.61
2019-02-19T17:30:20.947Z,8.46
2019-02-19T17:35:27.325Z,8.35
2019-02-19T17:40:33.458Z,8.23
2019-02-19T17:45:55.357Z,8.13
2019-02-19T17:50:59.760Z,8.11
2019-02-19T17:56:27.021Z,8.05
2019-02-19T18:01:30.678Z,7.99
2019-02-19T18:06:37.187Z,7.91
2019-02-19T18:11:57.625Z,7.90
2019-02-19T18:17:03.908Z,7.83
2019-02-19T18:22:06.693Z,7.80
2019-02-19T18:27:08.267Z,7.75
2019-02-19T18:32:09.854Z,7.75
2019-02-19T18:37:12.197Z,7.82
2019-02-19T18:42:13.779Z,7.85
2019-02-19T18:47:16.483Z,7.82
2019-02-19T18:52:18.261Z,7.76
2019-02-19T18:57:19.837Z,7.74
2019-02-19T19:02:21.476Z,7.69
2019-02-19T19:07:23.056Z,7.60
2019-02-19T19:12:24.687Z,7.60
2019-02-19T19:17:26.310Z,7.62
2019-02-19T19:22:28.251Z,7.59
2019-02-19T19:27:29.879Z,7.64
2019-02-19T19:32:31.473Z,7.74
2019-02-19T19:37:33.058Z,7.81
2019-02-19T19:42:34.886Z,7.80
2019-02-19T19:47:36.443Z,7.76
2019-02-19T19:52:38.110Z,7.76
2019-02-19T19:57:39.680Z,7.77
2019-02-19T20:02:41.257Z,7.83
2019-02-19T20:07:42.835Z,7.90
2019-02-19T20:12:44.411Z,7.88
2019-02-19T20:17:46.016Z,7.89
2019-02-19T20:22:47.662Z,7.92
2019-02-19T20:27:49.331Z,7.94
2019-02-19T20:32:51.005Z,7.94
2019-02-19T20:37:54.231Z,7.96
2019-02-19T20:42:56.325Z,7.94
2019-02-19T20:47:59.802Z,7.92
2019-02-19T20:53:01.807Z,7.90
2019-02-19T20:58:03.660Z,7.93
2019-02-19T21:03:07.221Z,7.99
2019-02-19T21:08:09.594Z,7.92
2019-02-19T21:13:11.359Z,7.83
2019-02-19T21:18:13.686Z,7.76
2019-02-19T21:23:15.767Z,7.80
2019-02-19T21:28:17.570Z,7.77
2019-02-19T21:33:19.236Z,7.69
2019-02-19T21:38:20.893Z,7.54
2019-02-19T21:43:22.664Z,7.40
2019-02-19T21:48:24.538Z,7.30
2019-02-19T21:53:26.221Z,7.15
2019-02-19T21:58:27.887Z,7.06
2019-02-19T22:03:29.753Z,6.99
2019-02-19T22:08:31.513Z,6.88
2019-02-19T22:13:33.109Z,6.80
2019-02-19T22:18:34.669Z,6.67
2019-02-19T22:23:36.249Z,6.64
2019-02-19T22:28:37.854Z,6.53
2019-02-19T22:33:39.423Z,6.45
2019-02-19T22:38:41.024Z,6.35
2019-02-19T22:43:43.689Z,6.32
2019-02-19T22:48:45.266Z,6.22
2019-02-19T22:53:54.730Z,6.21
2019-02-19T22:58:56.289Z,6.20
2019-02-19T23:03:58.548Z,6.15
2019-02-19T23:09:00.189Z,6.16
2019-02-19T23:14:01.762Z,6.12
2019-02-19T23:19:04.762Z,6.12
2019-02-19T23:24:06.323Z,5.99
2019-02-19T23:29:07.898Z,5.96
2019-02-19T23:34:09.805Z,5.85
2019-02-19T23:39:11.425Z,5.81
2019-02-19T23:44:13.504Z,5.71
2019-02-19T23:49:15.218Z,5.73
2019-02-19T23:54:16.897Z,5.73
2019-02-19T23:59:18.466Z,5.75
